John T. Costello — WDI3551 — position and weather

sailwx.info

Track history (hours):
 
Tides and Currents Weather Stations Pressure Air Temp Water Temp Dewpoint Dewpoint Depression Visibility Wind Speed Wind Dir Waves Ship Positions

John T. Costello

Owner: Higman Barge Line, Inc., Orange, TX. More information available from US FCC via Universal Licensing System and Coast Guard Vessel Documentation Center.

Last reported at 2018-May-27 14:29 UTC. Time now 2018-May-28 01:17 UTC.
Position N 29°47' W 095°06'.

Length 116 m; draft 2.7 m.

Type: . MMSI: 367689490.

Date/timePositionNaut miles runAvg speedWind from/ knotsBaromVisibWave heightAir tempDewpointWater temp
2018-May-27 14:29N 29°47' W 095°06'0 0.2
2018-May-27 13:59N 29°47' W 095°06'1 2.3
2018-May-27 13:26N 29°46' W 095°06'1 2.8
2018-May-27 13:00N 29°47' W 095°06'0 0.0
2018-May-27 03:54N 29°47' W 095°06'1 0.0
2018-May-26 00:29N 29°47' W 095°05'0 1.0
2018-May-26 00:00N 29°47' W 095°05'3 4.5
2018-May-25 23:25N 29°45' W 095°06'1 0.0
2018-May-24 22:11N 29°44' W 095°07'3 7.7
2018-May-24 21:49N 29°46' W 095°05'1 0.6
2018-May-24 19:23N 29°47' W 095°05'3 0.1
2018-May-23 21:47N 29°45' W 095°07'0 0.0
2018-May-23 20:56N 29°45' W 095°07'2 0.3
2018-May-23 13:41N 29°46' W 095°06'1 2.7
2018-May-23 13:24N 29°47' W 095°06'0 0.0
2018-May-23 09:37N 29°47' W 095°06'0 1.8
2018-May-23 09:24N 29°47' W 095°05'1 0.3
2018-May-23 07:15N 29°47' W 095°05'1 3.7
2018-May-23 06:59N 29°46' W 095°05'3 6.3
2018-May-23 06:28N 29°44' W 095°02'3 7.3
2018-May-23 06:00N 29°41' W 094°59'4 8.0
2018-May-23 05:30N 29°38' W 094°58'4 8.9
2018-May-23 05:00N 29°34' W 094°55'4 8.9
2018-May-23 04:30N 29°30' W 094°52'4 8.8
2018-May-23 04:00N 29°26' W 094°50'4 7.7
2018-May-23 03:30N 29°23' W 094°48'10 5.2
2018-May-23 01:32N 29°28' W 094°38'1 7.2
2018-May-23 01:22N 29°29' W 094°37'4 7.2
2018-May-23 00:46N 29°30' W 094°33'2 6.9
2018-May-23 00:30N 29°31' W 094°31'2 2.5
2018-May-22 23:37N 29°32' W 094°29'2 6.1
2018-May-22 23:18N 29°34' W 094°27'2 6.4
2018-May-22 23:00N 29°34' W 094°25'3 5.0
2018-May-22 22:30N 29°36' W 094°23'3 7.0
2018-May-22 22:01N 29°38' W 094°19'3 6.3
2018-May-22 21:30N 29°39' W 094°16'3 7.0
2018-May-22 21:00N 29°41' W 094°12'3 6.7
2018-May-22 20:31N 29°42' W 094°09'1 2.3
2018-May-22 19:59N 29°43' W 094°08'1 1.1
2018-May-22 19:30N 29°43' W 094°07'4 7.4
2018-May-22 19:00N 29°45' W 094°04'3 6.7
2018-May-22 18:30N 29°47' W 094°01'4 7.3
2018-May-22 18:00N 29°50' W 093°57'3 6.9
2018-May-22 17:30N 29°53' W 093°55'4 7.8
2018-May-22 17:00N 29°56' W 093°53'4 7.1
2018-May-22 16:30N 29°59' W 093°50'4 7.4
2018-May-22 16:00N 30°00' W 093°46'4 7.1
2018-May-22 15:30N 30°03' W 093°44'3 7.1
2018-May-22 15:00N 30°04' W 093°40'4 7.4
2018-May-22 14:30N 30°04' W 093°35'3 6.8
2018-May-22 14:00N 30°04' W 093°32'3 6.8
2018-May-22 13:30N 30°04' W 093°28'3 6.7
2018-May-22 13:00N 30°04' W 093°24'3 5.3
2018-May-22 12:30N 30°04' W 093°21'3 5.8
2018-May-22 12:00N 30°06' W 093°19'1 3.0
2018-May-22 11:30N 30°05' W 093°17'1 2.0
2018-May-22 10:54N 30°04' W 093°16'0 0.5
2018-May-22 10:30N 30°04' W 093°16'0 0.7
2018-May-22 09:59N 30°04' W 093°16'0 0.0
2018-May-22 09:29N 30°04' W 093°16'0 0.0
2018-May-22 08:59N 30°04' W 093°16'0 0.0
2018-May-22 08:26N 30°04' W 093°16'0 0.0
2018-May-22 07:59N 30°04' W 093°16'0 0.0
2018-May-22 07:29N 30°04' W 093°16'0 0.0
2018-May-22 06:59N 30°04' W 093°16'0 0.0
2018-May-22 06:29N 30°04' W 093°16'0 0.0
2018-May-22 05:59N 30°04' W 093°16'0 0.0
2018-May-22 05:29N 30°04' W 093°16'0 0.9
2018-May-22 05:00N 30°03' W 093°16'1 1.8
2018-May-22 04:30N 30°02' W 093°16'0 0.0
2018-May-22 04:00N 30°02' W 093°16'0 0.0
2018-May-22 03:30N 30°02' W 093°16'0 0.1
2018-May-22 03:00N 30°02' W 093°16'0 0.0
2018-May-22 02:30N 30°02' W 093°16'0 0.0
2018-May-22 01:59N 30°02' W 093°16'2 4.8
2018-May-22 01:30N 30°01' W 093°14'3 6.3
2018-May-22 01:00N 29°58' W 093°12'3 6.2
2018-May-22 00:30N 29°56' W 093°09'3 6.3
2018-May-22 00:00N 29°56' W 093°05'  
2018-May-18 23:44N 31°57' W 091°11'4 8.6
2018-May-18 23:13N 31°59' W 091°07'2 9.4
2018-May-18 22:58N 32°01' W 091°05'4 8.8
2018-May-18 22:30N 32°05' W 091°04'3 6.4
2018-May-18 22:00N 32°08' W 091°05'4 8.4
2018-May-18 21:30N 32°09' W 091°00'5 9.6
2018-May-18 21:00N 32°13' W 090°59'5 9.2
2018-May-18 20:30N 32°17' W 090°56'3 6.8
2018-May-18 20:00N 32°21' W 090°55'4 8.5
2018-May-18 19:30N 32°22' W 091°00'4 8.3
2018-May-18 19:00N 32°26' W 091°02'510.1
2018-May-18 18:30N 32°29' W 091°07'5 9.7
2018-May-18 18:00N 32°34' W 091°06'5 9.2
2018-May-18 17:30N 32°38' W 091°09'  
Track history (hours):
 
Tides and Currents Weather Stations Pressure Air Temp Water Temp Dewpoint Dewpoint Depression Visibility Wind Speed Wind Dir Waves Ship Positions

John T. Costello

Owner: Higman Barge Line, Inc., Orange, TX. More information available from US FCC via Universal Licensing System and Coast Guard Vessel Documentation Center.

Last reported at 2018-May-27 14:29 UTC. Time now 2018-May-28 01:17 UTC.
Position N 29°47' W 095°06'.

Length 116 m; draft 2.7 m.

Type: . MMSI: 367689490.

Date/timePositionNaut miles runAvg speedWind from/ knotsBaromVisibWave heightAir tempDewpointWater temp
2018-May-27 14:29N 29°47' W 095°06'0 0.2
2018-May-27 13:59N 29°47' W 095°06'1 2.3
2018-May-27 13:26N 29°46' W 095°06'1 2.8
2018-May-27 13:00N 29°47' W 095°06'0 0.0
2018-May-27 03:54N 29°47' W 095°06'1 0.0
2018-May-26 00:29N 29°47' W 095°05'0 1.0
2018-May-26 00:00N 29°47' W 095°05'3 4.5
2018-May-25 23:25N 29°45' W 095°06'1 0.0
2018-May-24 22:11N 29°44' W 095°07'3 7.7
2018-May-24 21:49N 29°46' W 095°05'1 0.6
2018-May-24 19:23N 29°47' W 095°05'3 0.1
2018-May-23 21:47N 29°45' W 095°07'0 0.0
2018-May-23 20:56N 29°45' W 095°07'2 0.3
2018-May-23 13:41N 29°46' W 095°06'1 2.7
2018-May-23 13:24N 29°47' W 095°06'0 0.0
2018-May-23 09:37N 29°47' W 095°06'0 1.8
2018-May-23 09:24N 29°47' W 095°05'1 0.3
2018-May-23 07:15N 29°47' W 095°05'1 3.7
2018-May-23 06:59N 29°46' W 095°05'3 6.3
2018-May-23 06:28N 29°44' W 095°02'3 7.3
2018-May-23 06:00N 29°41' W 094°59'4 8.0
2018-May-23 05:30N 29°38' W 094°58'4 8.9
2018-May-23 05:00N 29°34' W 094°55'4 8.9
2018-May-23 04:30N 29°30' W 094°52'4 8.8
2018-May-23 04:00N 29°26' W 094°50'4 7.7
2018-May-23 03:30N 29°23' W 094°48'10 5.2
2018-May-23 01:32N 29°28' W 094°38'1 7.2
2018-May-23 01:22N 29°29' W 094°37'4 7.2
2018-May-23 00:46N 29°30' W 094°33'2 6.9
2018-May-23 00:30N 29°31' W 094°31'2 2.5
2018-May-22 23:37N 29°32' W 094°29'2 6.1
2018-May-22 23:18N 29°34' W 094°27'2 6.4
2018-May-22 23:00N 29°34' W 094°25'3 5.0
2018-May-22 22:30N 29°36' W 094°23'3 7.0
2018-May-22 22:01N 29°38' W 094°19'3 6.3
2018-May-22 21:30N 29°39' W 094°16'3 7.0
2018-May-22 21:00N 29°41' W 094°12'3 6.7
2018-May-22 20:31N 29°42' W 094°09'1 2.3
2018-May-22 19:59N 29°43' W 094°08'1 1.1
2018-May-22 19:30N 29°43' W 094°07'4 7.4
2018-May-22 19:00N 29°45' W 094°04'3 6.7
2018-May-22 18:30N 29°47' W 094°01'4 7.3
2018-May-22 18:00N 29°50' W 093°57'3 6.9
2018-May-22 17:30N 29°53' W 093°55'4 7.8
2018-May-22 17:00N 29°56' W 093°53'4 7.1
2018-May-22 16:30N 29°59' W 093°50'4 7.4
2018-May-22 16:00N 30°00' W 093°46'4 7.1
2018-May-22 15:30N 30°03' W 093°44'3 7.1
2018-May-22 15:00N 30°04' W 093°40'4 7.4
2018-May-22 14:30N 30°04' W 093°35'3 6.8
2018-May-22 14:00N 30°04' W 093°32'3 6.8
2018-May-22 13:30N 30°04' W 093°28'3 6.7
2018-May-22 13:00N 30°04' W 093°24'3 5.3
2018-May-22 12:30N 30°04' W 093°21'3 5.8
2018-May-22 12:00N 30°06' W 093°19'1 3.0
2018-May-22 11:30N 30°05' W 093°17'1 2.0
2018-May-22 10:54N 30°04' W 093°16'0 0.5
2018-May-22 10:30N 30°04' W 093°16'0 0.7
2018-May-22 09:59N 30°04' W 093°16'0 0.0
2018-May-22 09:29N 30°04' W 093°16'0 0.0
2018-May-22 08:59N 30°04' W 093°16'0 0.0
2018-May-22 08:26N 30°04' W 093°16'0 0.0
2018-May-22 07:59N 30°04' W 093°16'0 0.0
2018-May-22 07:29N 30°04' W 093°16'0 0.0
2018-May-22 06:59N 30°04' W 093°16'0 0.0
2018-May-22 06:29N 30°04' W 093°16'0 0.0
2018-May-22 05:59N 30°04' W 093°16'0 0.0
2018-May-22 05:29N 30°04' W 093°16'0 0.9
2018-May-22 05:00N 30°03' W 093°16'1 1.8
2018-May-22 04:30N 30°02' W 093°16'0 0.0
2018-May-22 04:00N 30°02' W 093°16'0 0.0
2018-May-22 03:30N 30°02' W 093°16'0 0.1
2018-May-22 03:00N 30°02' W 093°16'0 0.0
2018-May-22 02:30N 30°02' W 093°16'0 0.0
2018-May-22 01:59N 30°02' W 093°16'2 4.8
2018-May-22 01:30N 30°01' W 093°14'3 6.3
2018-May-22 01:00N 29°58' W 093°12'3 6.2
2018-May-22 00:30N 29°56' W 093°09'3 6.3
2018-May-22 00:00N 29°56' W 093°05'  
2018-May-18 23:44N 31°57' W 091°11'4 8.6
2018-May-18 23:13N 31°59' W 091°07'2 9.4
2018-May-18 22:58N 32°01' W 091°05'4 8.8
2018-May-18 22:30N 32°05' W 091°04'3 6.4
2018-May-18 22:00N 32°08' W 091°05'4 8.4
2018-May-18 21:30N 32°09' W 091°00'5 9.6
2018-May-18 21:00N 32°13' W 090°59'5 9.2
2018-May-18 20:30N 32°17' W 090°56'3 6.8
2018-May-18 20:00N 32°21' W 090°55'4 8.5
2018-May-18 19:30N 32°22' W 091°00'4 8.3
2018-May-18 19:00N 32°26' W 091°02'510.1
2018-May-18 18:30N 32°29' W 091°07'5 9.7
2018-May-18 18:00N 32°34' W 091°06'5 9.2
2018-May-18 17:30N 32°38' W 091°09'  

Dump ship's entire track history